Carey, Idaho
Current Conditions -  °F | °C
As of 6:47 PM on Monday 24 Nov 2014 (Local Time) from KSUN Reporting Station
Clear Clear  
Wind Chill: 23°   Ceiling: Unl
Heat Index: 28°   Visibility: 10mi
Dew Point: 19°   Wind: 5mph
Humidity: 69%   Direction: 330°NNW
Pressure: 30.34"   Gusts: NA
Location:  43.31°N, 113.94°W
Report Text: KSUN 250147Z 33004KT 10SM SKC M02/M07 A3034
Loading
Personal Weather Stations






























Interactive Weather Map New forecast layout! Learn more

10-Day Weather Forecast

Advertisements
Track Severe Weather on mobile